Terminal Aerodrome Forecast
Issued by NWS Flagstaff, AZ

Home | Current Version | Previous Version | Text Only | Print | Product List | Glossary On
Versions: 1 2 3 4 5 6 7 8 9 10 11 12 13 14 15 16 17
000
FTUS45 KFGZ 242332
TAFFLG
TAF
KFLG 242332Z 2500/2524 21009KT P6SM BKN150
     FM250300 VRB04KT 6SM FU SKC
     FM251800 22011G17KT P6SM VCTS BKN100CB=

USA.gov is the U.S. government's official web portal to all federal, state and local government web resources and services.